Petalidi — 9HA4425 — position and weather

sailwx.info

Track history (hours):
 
Tides and Currents Weather Stations Pressure Air Temp Water Temp Dewpoint Dewpoint Depression Visibility Wind Speed Wind Dir Waves Ship Positions

Petalidi

Last reported at 2018-Jul-17 04:39 UTC. Time now 2018-Jul-18 09:00 UTC.
Position N 36°42' E 012°35'.

Length 163 m; draft 8.3 m.

Type: Cargo ship. MMSI: 249902000.

Date/timePositionNaut miles runAvg speedWind from/ knotsBaromVisibWave heightAir tempDewpointWater temp
2018-Jul-17 04:39N 36°42' E 012°35'310.3
2018-Jul-17 04:21N 36°40' E 012°38'410.8
2018-Jul-17 04:00N 36°38' E 012°42'510.9
2018-Jul-17 03:30N 36°35' E 012°48'510.8
2018-Jul-17 03:00N 36°32' E 012°54'611.1
2018-Jul-17 02:30N 36°29' E 012°60'611.3
2018-Jul-17 02:00N 36°26' E 013°05'611.4
2018-Jul-17 01:30N 36°23' E 013°11'611.2
2018-Jul-17 01:00N 36°20' E 013°17'611.5
2018-Jul-17 00:28N 36°17' E 013°24'1111.9
2018-Jul-16 23:30N 36°11' E 013°36'612.2
2018-Jul-16 23:00N 36°07' E 013°42'612.4
2018-Jul-16 22:30N 36°04' E 013°49'612.2
2018-Jul-16 22:00N 36°01' E 013°55'612.2
2018-Jul-16 21:30N 35°57' E 014°01'612.3
2018-Jul-16 21:00N 35°54' E 014°08'612.1
2018-Jul-16 20:30N 35°51' E 014°14'612.0
2018-Jul-16 19:59N 35°48' E 014°21'511.1
2018-Jul-16 19:29N 35°46' E 014°27'611.7
2018-Jul-16 19:00N 35°48' E 014°34'2 4.2
2018-Jul-16 18:30N 35°49' E 014°32'0 0.3
2018-Jul-16 18:00N 35°49' E 014°32'0 0.0
2018-Jul-16 17:30N 35°49' E 014°32'0 0.0
2018-Jul-16 16:57N 35°49' E 014°32'0 0.0
2018-Jul-16 16:30N 35°49' E 014°32'0 0.0
2018-Jul-16 15:45N 35°49' E 014°32'0 0.0
2018-Jul-16 15:30N 35°49' E 014°32'0 0.0
2018-Jul-16 15:00N 35°49' E 014°32'0 0.0
2018-Jul-16 13:57N 35°49' E 014°32'0 0.0
2018-Jul-16 13:21N 35°49' E 014°32'0 0.0
2018-Jul-16 13:00N 35°49' E 014°32'0 0.0
2018-Jul-16 12:30N 35°49' E 014°32'0 0.0
2018-Jul-16 11:54N 35°49' E 014°32'0 0.0
2018-Jul-16 11:24N 35°49' E 014°32'0 0.0
2018-Jul-16 11:00N 35°49' E 014°32'0 0.0
2018-Jul-16 10:30N 35°49' E 014°32'0 0.0
2018-Jul-16 10:00N 35°49' E 014°32'0 0.0
2018-Jul-16 09:30N 35°49' E 014°32'0 0.0
2018-Jul-16 09:00N 35°49' E 014°32'0 0.0
2018-Jul-16 08:30N 35°49' E 014°32'0 0.0
2018-Jul-16 08:00N 35°49' E 014°32'0 0.0
2018-Jul-16 07:30N 35°49' E 014°32'0 0.0
2018-Jul-16 07:00N 35°49' E 014°32'0 0.0
2018-Jul-16 06:27N 35°49' E 014°32'  
2018-Jul-13 03:23N 36°54' E 023°51'612.6
2018-Jul-13 02:56N 36°59' E 023°55'912.8
2018-Jul-13 02:15N 37°06' E 024°01'312.7
2018-Jul-13 02:00N 37°09' E 024°03'  
2018-Jul-10 17:17N 40°28' E 026°53'3 9.2
2018-Jul-10 17:00N 40°27' E 026°49'10210.0
2018-Jul-10 06:50N 39°45' E 024°48'2411.9
2018-Jul-10 04:50N 39°47' E 024°18'411.7
2018-Jul-10 04:29N 39°47' E 024°12'611.6
2018-Jul-10 04:00N 39°48' E 024°05'  
2018-Jul-07 22:00N 37°49' E 024°24'1710.8
2018-Jul-07 20:27N 37°38' E 024°08'4 9.7
2018-Jul-07 20:00N 37°36' E 024°03'510.7
2018-Jul-07 19:30N 37°36' E 023°56'611.3
2018-Jul-07 19:01N 37°38' E 023°49'612.3
2018-Jul-07 18:31N 37°40' E 023°42'611.8
2018-Jul-07 18:00N 37°45' E 023°39'611.4
2018-Jul-07 17:30N 37°51' E 023°37'510.4
2018-Jul-07 17:00N 37°56' E 023°36'1 2.5
2018-Jul-07 16:30N 37°57' E 023°36'0 0.0
2018-Jul-07 15:57N 37°57' E 023°36'0 0.0
2018-Jul-07 15:30N 37°57' E 023°36'0 0.0
2018-Jul-07 15:00N 37°57' E 023°36'0 0.0
2018-Jul-07 14:30N 37°57' E 023°36'0 0.0
2018-Jul-07 14:00N 37°57' E 023°36'0 0.0
2018-Jul-07 13:30N 37°57' E 023°36'0 0.0
2018-Jul-07 13:00N 37°57' E 023°36'0 0.0
2018-Jul-07 12:30N 37°57' E 023°36'0 0.0
2018-Jul-07 12:00N 37°57' E 023°36'0 0.0
2018-Jul-07 11:30N 37°57' E 023°36'0 0.0
2018-Jul-07 11:00N 37°57' E 023°36'0 0.0
2018-Jul-07 10:30N 37°57' E 023°36'0 0.0
2018-Jul-07 10:00N 37°57' E 023°36'0 0.0
2018-Jul-07 09:30N 37°57' E 023°36'0 0.0
2018-Jul-07 09:00N 37°57' E 023°36'1 1.6
2018-Jul-07 08:30N 37°56' E 023°36'2 4.4
2018-Jul-07 08:01N 37°54' E 023°36'0 0.8
2018-Jul-07 07:30N 37°55' E 023°36'0 0.3
2018-Jul-07 07:00N 37°55' E 023°36'0 0.3
2018-Jul-07 06:30N 37°55' E 023°36'0 0.5
2018-Jul-07 06:00N 37°55' E 023°36'0 0.2
2018-Jul-07 05:30N 37°55' E 023°36'1 1.9
2018-Jul-07 05:00N 37°54' E 023°35'  
Track history (hours):
 
Tides and Currents Weather Stations Pressure Air Temp Water Temp Dewpoint Dewpoint Depression Visibility Wind Speed Wind Dir Waves Ship Positions

Petalidi

Last reported at 2018-Jul-17 04:39 UTC. Time now 2018-Jul-18 09:00 UTC.
Position N 36°42' E 012°35'.

Length 163 m; draft 8.3 m.

Type: Cargo ship. MMSI: 249902000.

Date/timePositionNaut miles runAvg speedWind from/ knotsBaromVisibWave heightAir tempDewpointWater temp
2018-Jul-17 04:39N 36°42' E 012°35'310.3
2018-Jul-17 04:21N 36°40' E 012°38'410.8
2018-Jul-17 04:00N 36°38' E 012°42'510.9
2018-Jul-17 03:30N 36°35' E 012°48'510.8
2018-Jul-17 03:00N 36°32' E 012°54'611.1
2018-Jul-17 02:30N 36°29' E 012°60'611.3
2018-Jul-17 02:00N 36°26' E 013°05'611.4
2018-Jul-17 01:30N 36°23' E 013°11'611.2
2018-Jul-17 01:00N 36°20' E 013°17'611.5
2018-Jul-17 00:28N 36°17' E 013°24'1111.9
2018-Jul-16 23:30N 36°11' E 013°36'612.2
2018-Jul-16 23:00N 36°07' E 013°42'612.4
2018-Jul-16 22:30N 36°04' E 013°49'612.2
2018-Jul-16 22:00N 36°01' E 013°55'612.2
2018-Jul-16 21:30N 35°57' E 014°01'612.3
2018-Jul-16 21:00N 35°54' E 014°08'612.1
2018-Jul-16 20:30N 35°51' E 014°14'612.0
2018-Jul-16 19:59N 35°48' E 014°21'511.1
2018-Jul-16 19:29N 35°46' E 014°27'611.7
2018-Jul-16 19:00N 35°48' E 014°34'2 4.2
2018-Jul-16 18:30N 35°49' E 014°32'0 0.3
2018-Jul-16 18:00N 35°49' E 014°32'0 0.0
2018-Jul-16 17:30N 35°49' E 014°32'0 0.0
2018-Jul-16 16:57N 35°49' E 014°32'0 0.0
2018-Jul-16 16:30N 35°49' E 014°32'0 0.0
2018-Jul-16 15:45N 35°49' E 014°32'0 0.0
2018-Jul-16 15:30N 35°49' E 014°32'0 0.0
2018-Jul-16 15:00N 35°49' E 014°32'0 0.0
2018-Jul-16 13:57N 35°49' E 014°32'0 0.0
2018-Jul-16 13:21N 35°49' E 014°32'0 0.0
2018-Jul-16 13:00N 35°49' E 014°32'0 0.0
2018-Jul-16 12:30N 35°49' E 014°32'0 0.0
2018-Jul-16 11:54N 35°49' E 014°32'0 0.0
2018-Jul-16 11:24N 35°49' E 014°32'0 0.0
2018-Jul-16 11:00N 35°49' E 014°32'0 0.0
2018-Jul-16 10:30N 35°49' E 014°32'0 0.0
2018-Jul-16 10:00N 35°49' E 014°32'0 0.0
2018-Jul-16 09:30N 35°49' E 014°32'0 0.0
2018-Jul-16 09:00N 35°49' E 014°32'0 0.0
2018-Jul-16 08:30N 35°49' E 014°32'0 0.0
2018-Jul-16 08:00N 35°49' E 014°32'0 0.0
2018-Jul-16 07:30N 35°49' E 014°32'0 0.0
2018-Jul-16 07:00N 35°49' E 014°32'0 0.0
2018-Jul-16 06:27N 35°49' E 014°32'  
2018-Jul-13 03:23N 36°54' E 023°51'612.6
2018-Jul-13 02:56N 36°59' E 023°55'912.8
2018-Jul-13 02:15N 37°06' E 024°01'312.7
2018-Jul-13 02:00N 37°09' E 024°03'  
2018-Jul-10 17:17N 40°28' E 026°53'3 9.2
2018-Jul-10 17:00N 40°27' E 026°49'10210.0
2018-Jul-10 06:50N 39°45' E 024°48'2411.9
2018-Jul-10 04:50N 39°47' E 024°18'411.7
2018-Jul-10 04:29N 39°47' E 024°12'611.6
2018-Jul-10 04:00N 39°48' E 024°05'  
2018-Jul-07 22:00N 37°49' E 024°24'1710.8
2018-Jul-07 20:27N 37°38' E 024°08'4 9.7
2018-Jul-07 20:00N 37°36' E 024°03'510.7
2018-Jul-07 19:30N 37°36' E 023°56'611.3
2018-Jul-07 19:01N 37°38' E 023°49'612.3
2018-Jul-07 18:31N 37°40' E 023°42'611.8
2018-Jul-07 18:00N 37°45' E 023°39'611.4
2018-Jul-07 17:30N 37°51' E 023°37'510.4
2018-Jul-07 17:00N 37°56' E 023°36'1 2.5
2018-Jul-07 16:30N 37°57' E 023°36'0 0.0
2018-Jul-07 15:57N 37°57' E 023°36'0 0.0
2018-Jul-07 15:30N 37°57' E 023°36'0 0.0
2018-Jul-07 15:00N 37°57' E 023°36'0 0.0
2018-Jul-07 14:30N 37°57' E 023°36'0 0.0
2018-Jul-07 14:00N 37°57' E 023°36'0 0.0
2018-Jul-07 13:30N 37°57' E 023°36'0 0.0
2018-Jul-07 13:00N 37°57' E 023°36'0 0.0
2018-Jul-07 12:30N 37°57' E 023°36'0 0.0
2018-Jul-07 12:00N 37°57' E 023°36'0 0.0
2018-Jul-07 11:30N 37°57' E 023°36'0 0.0
2018-Jul-07 11:00N 37°57' E 023°36'0 0.0
2018-Jul-07 10:30N 37°57' E 023°36'0 0.0
2018-Jul-07 10:00N 37°57' E 023°36'0 0.0
2018-Jul-07 09:30N 37°57' E 023°36'0 0.0
2018-Jul-07 09:00N 37°57' E 023°36'1 1.6
2018-Jul-07 08:30N 37°56' E 023°36'2 4.4
2018-Jul-07 08:01N 37°54' E 023°36'0 0.8
2018-Jul-07 07:30N 37°55' E 023°36'0 0.3
2018-Jul-07 07:00N 37°55' E 023°36'0 0.3
2018-Jul-07 06:30N 37°55' E 023°36'0 0.5
2018-Jul-07 06:00N 37°55' E 023°36'0 0.2
2018-Jul-07 05:30N 37°55' E 023°36'1 1.9
2018-Jul-07 05:00N 37°54' E 023°35'  

Dump ship's entire track history